createdAt,value
2023-04-25T00:00:47.381Z,13.53
2023-04-25T00:01:47.368Z,13.51
2023-04-25T00:02:47.649Z,13.49
2023-04-25T00:03:47.601Z,13.45
2023-04-25T00:04:47.695Z,13.42
2023-04-25T00:05:47.366Z,13.43
2023-04-25T00:06:47.319Z,13.39
2023-04-25T00:07:47.314Z,13.38
2023-04-25T00:08:47.324Z,13.38
2023-04-25T00:09:47.287Z,13.40
2023-04-25T00:10:47.264Z,13.40
2023-04-25T00:11:47.259Z,13.43
2023-04-25T00:12:47.258Z,13.38
2023-04-25T00:13:47.495Z,13.30
2023-04-25T00:14:47.222Z,13.42
2023-04-25T00:15:47.272Z,13.40
2023-04-25T00:16:47.201Z,13.24
2023-04-25T00:17:47.231Z,13.43
2023-04-25T00:18:47.218Z,13.30
2023-04-25T00:19:47.170Z,13.26
2023-04-25T00:20:47.161Z,13.24
2023-04-25T00:21:47.325Z,13.27
2023-04-25T00:22:47.136Z,13.26
2023-04-25T00:23:47.151Z,13.29
2023-04-25T00:24:47.138Z,13.23
2023-04-25T00:25:47.112Z,13.14
2023-04-25T00:26:47.101Z,13.29
2023-04-25T00:27:47.082Z,13.29
2023-04-25T00:28:47.069Z,13.17
2023-04-25T00:29:47.120Z,13.21
2023-04-25T00:30:47.053Z,13.20
2023-04-25T00:31:47.075Z,13.19
2023-04-25T00:32:47.112Z,13.23
2023-04-25T00:33:47.034Z,13.16
2023-04-25T00:34:47.014Z,13.20
2023-04-25T00:35:46.997Z,13.14
2023-04-25T00:36:47.016Z,13.24
2023-04-25T00:37:46.974Z,13.17
2023-04-25T00:38:46.964Z,13.19
2023-04-25T00:39:46.960Z,13.21
2023-04-25T00:40:46.940Z,13.11
2023-04-25T00:41:46.954Z,13.21
2023-04-25T00:42:46.914Z,13.06
2023-04-25T00:43:46.917Z,13.16
2023-04-25T00:44:46.895Z,13.17
2023-04-25T00:45:46.909Z,13.16
2023-04-25T00:46:46.932Z,13.08
2023-04-25T00:47:46.896Z,12.99
2023-04-25T00:48:46.863Z,13.11
2023-04-25T00:49:46.848Z,13.08
2023-04-25T00:50:46.829Z,13.05
2023-04-25T00:51:46.854Z,13.05
2023-04-25T00:52:46.809Z,13.11
2023-04-25T00:53:46.827Z,13.02
2023-04-25T00:54:46.796Z,12.98
2023-04-25T00:55:46.777Z,12.99
2023-04-25T00:56:46.781Z,13.02
2023-04-25T00:57:46.754Z,13.06
2023-04-25T00:58:46.760Z,13.06
2023-04-25T00:59:46.747Z,13.05
2023-04-25T01:00:46.783Z,12.98
2023-04-25T01:01:46.852Z,12.93
2023-04-25T01:02:46.877Z,12.93
2023-04-25T01:03:46.792Z,12.99
2023-04-25T01:04:46.675Z,13.02
2023-04-25T01:05:46.668Z,12.88
2023-04-25T01:06:46.656Z,12.90
2023-04-25T01:07:46.691Z,12.91
2023-04-25T01:08:46.654Z,12.99
2023-04-25T01:09:46.624Z,12.79
2023-04-25T01:10:46.626Z,12.91
2023-04-25T01:11:46.614Z,12.98
2023-04-25T01:12:46.609Z,12.98
2023-04-25T01:13:46.601Z,12.91
2023-04-25T01:14:46.566Z,12.95
2023-04-25T01:15:46.558Z,12.96
2023-04-25T01:16:46.586Z,12.86
2023-04-25T01:17:46.600Z,12.90
2023-04-25T01:18:46.568Z,12.93
2023-04-25T01:19:46.518Z,12.90
2023-04-25T01:20:46.501Z,12.86
2023-04-25T01:21:46.529Z,12.90
2023-04-25T01:22:46.485Z,12.88
2023-04-25T01:23:46.484Z,12.86
2023-04-25T01:24:46.485Z,12.84
2023-04-25T01:25:46.449Z,12.81
2023-04-25T01:26:46.447Z,12.81
2023-04-25T01:27:46.423Z,12.77
2023-04-25T01:28:46.424Z,12.77
2023-04-25T01:29:46.433Z,12.77
2023-04-25T01:30:46.399Z,12.76
2023-04-25T01:31:46.430Z,12.71
2023-04-25T01:32:46.414Z,12.72
2023-04-25T01:33:46.413Z,12.83
2023-04-25T01:34:46.387Z,12.77
2023-04-25T01:35:46.350Z,12.73
2023-04-25T01:36:46.327Z,12.72
2023-04-25T01:37:46.317Z,12.72
2023-04-25T01:38:46.332Z,12.71
2023-04-25T01:39:46.310Z,12.68
2023-04-25T01:40:46.284Z,12.76
2023-04-25T01:41:46.306Z,12.76
2023-04-25T01:42:46.272Z,12.66
2023-04-25T01:43:46.254Z,12.73
2023-04-25T01:44:46.240Z,12.69
2023-04-25T01:45:46.306Z,12.73
2023-04-25T01:46:46.248Z,12.68
2023-04-25T01:47:46.218Z,12.69
2023-04-25T01:48:46.195Z,12.72
2023-04-25T01:49:46.214Z,12.69
2023-04-25T01:50:46.172Z,12.68
2023-04-25T01:51:46.185Z,12.65
2023-04-25T01:52:46.201Z,12.58
2023-04-25T01:53:46.143Z,12.65
2023-04-25T01:54:46.127Z,12.69
2023-04-25T01:55:46.125Z,12.54
2023-04-25T01:56:46.139Z,12.69
2023-04-25T01:57:46.105Z,12.61
2023-04-25T01:58:46.111Z,12.55
2023-04-25T01:59:46.083Z,12.61
2023-04-25T02:00:46.073Z,12.66
2023-04-25T02:01:46.083Z,12.54
2023-04-25T02:02:46.130Z,12.63
2023-04-25T02:03:46.201Z,12.62
2023-04-25T02:04:46.145Z,12.62
2023-04-25T02:05:46.038Z,12.62
2023-04-25T02:06:46.004Z,12.59
2023-04-25T02:07:46.006Z,12.62
2023-04-25T02:08:46.003Z,12.58
2023-04-25T02:09:45.975Z,12.58
2023-04-25T02:10:45.962Z,12.58
2023-04-25T02:11:45.947Z,12.61
2023-04-25T02:12:45.954Z,12.54
2023-04-25T02:13:45.919Z,12.54
2023-04-25T02:14:45.912Z,12.58
2023-04-25T02:15:46.003Z,12.54
2023-04-25T02:16:45.976Z,12.54
2023-04-25T02:17:45.899Z,12.55
2023-04-25T02:18:45.874Z,12.59
2023-04-25T02:19:45.866Z,12.53
2023-04-25T02:20:45.876Z,12.47
2023-04-25T02:21:45.886Z,12.53
2023-04-25T02:22:45.844Z,12.48
2023-04-25T02:23:45.829Z,12.51
2023-04-25T02:24:45.808Z,12.54
2023-04-25T02:25:45.821Z,12.55
2023-04-25T02:26:45.778Z,12.50
2023-04-25T02:27:45.799Z,12.50
2023-04-25T02:28:45.759Z,12.54
2023-04-25T02:29:45.753Z,12.48
2023-04-25T02:30:45.756Z,12.55
2023-04-25T02:31:45.910Z,12.48
2023-04-25T02:32:45.818Z,12.48
2023-04-25T02:33:45.774Z,12.51
2023-04-25T02:34:45.711Z,12.48
2023-04-25T02:35:45.721Z,12.47
2023-04-25T02:36:45.672Z,12.46
2023-04-25T02:37:45.784Z,12.46
2023-04-25T02:38:45.648Z,12.46
2023-04-25T02:39:45.643Z,12.44
2023-04-25T02:40:45.627Z,12.43
2023-04-25T02:41:45.635Z,12.47
2023-04-25T02:42:45.634Z,12.43
2023-04-25T02:43:45.595Z,12.44
2023-04-25T02:44:45.584Z,12.46
2023-04-25T02:45:45.576Z,12.44
2023-04-25T02:46:45.581Z,12.50
2023-04-25T02:47:45.620Z,12.47
2023-04-25T02:48:45.541Z,12.48
2023-04-25T02:49:45.544Z,12.41
2023-04-25T02:50:45.520Z,12.44
2023-04-25T02:51:45.517Z,12.43
2023-04-25T02:52:45.519Z,12.38
2023-04-25T02:53:45.512Z,12.40
2023-04-25T02:54:45.472Z,12.41
2023-04-25T02:55:45.469Z,12.40
2023-04-25T02:56:45.472Z,12.41
2023-04-25T02:57:45.439Z,12.40
2023-04-25T02:58:45.443Z,12.40
2023-04-25T02:59:45.420Z,12.32
2023-04-25T03:00:45.419Z,12.36
2023-04-25T03:01:45.399Z,12.33
2023-04-25T03:02:45.425Z,12.32
2023-04-25T03:03:45.499Z,12.30
2023-04-25T03:04:45.452Z,12.38
2023-04-25T03:05:45.357Z,12.33
2023-04-25T03:06:45.351Z,12.33
2023-04-25T03:07:45.328Z,12.33
2023-04-25T03:08:45.344Z,12.30
2023-04-25T03:09:45.334Z,12.33
2023-04-25T03:10:45.302Z,12.40
2023-04-25T03:11:45.316Z,12.35
2023-04-25T03:12:45.274Z,12.36
2023-04-25T03:13:45.304Z,12.29
2023-04-25T03:14:45.260Z,12.29
2023-04-25T03:15:45.249Z,12.30
2023-04-25T03:16:45.418Z,12.38
2023-04-25T03:17:45.265Z,12.36
2023-04-25T03:18:45.223Z,12.28
2023-04-25T03:19:45.206Z,12.33
2023-04-25T03:20:45.186Z,12.26
2023-04-25T03:21:45.184Z,12.25
2023-04-25T03:22:45.193Z,12.29
2023-04-25T03:23:45.185Z,12.28
2023-04-25T03:24:45.150Z,12.25
2023-04-25T03:25:45.162Z,12.23
2023-04-25T03:26:45.143Z,12.25
2023-04-25T03:27:45.141Z,12.25
2023-04-25T03:28:45.104Z,12.26
2023-04-25T03:29:45.097Z,12.23
2023-04-25T03:30:45.123Z,12.21
2023-04-25T03:31:45.099Z,12.22
2023-04-25T03:32:45.139Z,12.28
2023-04-25T03:33:45.060Z,12.26
2023-04-25T03:34:45.035Z,12.22
2023-04-25T03:35:45.032Z,12.22
2023-04-25T03:36:45.023Z,12.18
2023-04-25T03:37:45.031Z,12.18
2023-04-25T03:38:45.005Z,12.18
2023-04-25T03:39:44.985Z,12.21
2023-04-25T03:40:44.975Z,12.28
2023-04-25T03:41:44.989Z,12.15
2023-04-25T03:42:45.229Z,12.18
2023-04-25T03:43:44.949Z,12.26
2023-04-25T03:44:44.930Z,12.26
2023-04-25T03:45:44.942Z,12.23
2023-04-25T03:46:44.903Z,12.17
2023-04-25T03:47:44.997Z,12.26
2023-04-25T03:48:44.884Z,12.28
2023-04-25T03:49:44.879Z,12.26
2023-04-25T03:50:44.862Z,12.17
2023-04-25T03:51:44.856Z,12.23
2023-04-25T03:52:44.840Z,12.22
2023-04-25T03:53:44.855Z,12.22
2023-04-25T03:54:44.829Z,12.13
2023-04-25T03:55:44.813Z,12.18
2023-04-25T03:56:44.795Z,12.26
2023-04-25T03:57:44.810Z,12.26
2023-04-25T03:58:44.806Z,12.11
2023-04-25T03:59:44.773Z,12.13
2023-04-25T04:00:44.759Z,12.15
2023-04-25T04:01:44.750Z,12.10
2023-04-25T04:02:45.562Z,12.13
2023-04-25T04:03:45.072Z,12.15
2023-04-25T04:04:44.978Z,12.11
2023-04-25T04:05:44.781Z,12.22
2023-04-25T04:06:44.696Z,12.17
2023-04-25T04:07:44.681Z,12.11
2023-04-25T04:08:44.686Z,12.11
2023-04-25T04:09:44.657Z,12.15
2023-04-25T04:10:44.645Z,12.18
2023-04-25T04:11:44.634Z,12.14
2023-04-25T04:12:44.621Z,12.14
2023-04-25T04:13:44.655Z,12.17
2023-04-25T04:14:44.640Z,12.21
2023-04-25T04:15:44.636Z,12.07
2023-04-25T04:16:44.617Z,12.17
2023-04-25T04:17:44.605Z,12.14
2023-04-25T04:18:44.635Z,12.15
2023-04-25T04:19:44.543Z,12.17
2023-04-25T04:20:44.607Z,12.11
2023-04-25T04:21:44.593Z,12.13
2023-04-25T04:22:44.620Z,12.11
2023-04-25T04:23:44.563Z,12.11
2023-04-25T04:24:44.572Z,12.14
2023-04-25T04:25:44.621Z,12.14
2023-04-25T04:26:44.473Z,12.05
2023-04-25T04:27:44.555Z,12.07
2023-04-25T04:28:44.479Z,11.99
2023-04-25T04:29:44.465Z,12.10
2023-04-25T04:30:44.452Z,12.13
2023-04-25T04:31:44.462Z,12.10
2023-04-25T04:32:44.460Z,12.17
2023-04-25T04:33:44.394Z,12.07
2023-04-25T04:34:44.388Z,11.99
2023-04-25T04:35:44.394Z,11.99
2023-04-25T04:36:44.372Z,11.99
2023-04-25T04:37:44.351Z,11.97
2023-04-25T04:38:44.365Z,12.04
2023-04-25T04:39:44.330Z,12.10
2023-04-25T04:40:44.339Z,12.04
2023-04-25T04:41:44.318Z,11.97
2023-04-25T04:42:44.301Z,12.05
2023-04-25T04:43:44.322Z,12.03
2023-04-25T04:44:44.283Z,11.99
2023-04-25T04:45:44.284Z,12.08
2023-04-25T04:46:44.268Z,12.07
2023-04-25T04:47:44.295Z,12.08
2023-04-25T04:48:44.274Z,12.03
2023-04-25T04:49:44.218Z,11.96
2023-04-25T04:50:44.208Z,12.03
2023-04-25T04:51:44.237Z,12.04
2023-04-25T04:52:44.190Z,12.03
2023-04-25T04:53:44.177Z,12.04
2023-04-25T04:54:44.174Z,12.08
2023-04-25T04:55:44.166Z,12.04
2023-04-25T04:56:44.177Z,11.99
2023-04-25T04:57:44.145Z,11.95
2023-04-25T04:58:44.132Z,11.99
2023-04-25T04:59:44.141Z,12.05
2023-04-25T05:00:44.123Z,12.00
2023-04-25T05:01:44.116Z,12.00
2023-04-25T05:02:44.220Z,12.07
2023-04-25T05:03:44.161Z,12.05
2023-04-25T05:04:44.197Z,12.05
2023-04-25T05:05:44.073Z,12.04
2023-04-25T05:06:44.065Z,11.99
2023-04-25T05:07:44.032Z,12.03
2023-04-25T05:08:44.021Z,12.10
2023-04-25T05:09:44.013Z,12.05
2023-04-25T05:10:44.022Z,11.99
2023-04-25T05:11:43.987Z,12.03
2023-04-25T05:12:43.994Z,12.07
2023-04-25T05:13:43.966Z,12.04
2023-04-25T05:14:43.977Z,12.08
2023-04-25T05:15:43.969Z,12.05
2023-04-25T05:16:43.994Z,11.99
2023-04-25T05:17:43.996Z,12.04
2023-04-25T05:18:43.913Z,12.05
2023-04-25T05:19:43.919Z,12.05
2023-04-25T05:20:43.916Z,12.03
2023-04-25T05:21:43.888Z,12.04
2023-04-25T05:22:43.887Z,12.10
2023-04-25T05:23:43.860Z,12.03
2023-04-25T05:24:43.871Z,11.99
2023-04-25T05:25:43.869Z,12.05
2023-04-25T05:26:43.823Z,11.99
2023-04-25T05:27:43.822Z,12.03
2023-04-25T05:28:43.807Z,12.03
2023-04-25T05:29:43.825Z,11.99
2023-04-25T05:30:43.814Z,12.05
2023-04-25T05:31:43.807Z,11.97
2023-04-25T05:32:43.832Z,12.03
2023-04-25T05:33:43.777Z,11.99
2023-04-25T05:34:43.784Z,12.11
2023-04-25T05:35:43.751Z,12.05
2023-04-25T05:36:43.723Z,12.03
2023-04-25T05:37:43.719Z,11.97
2023-04-25T05:38:43.710Z,12.00
2023-04-25T05:39:43.708Z,12.03
2023-04-25T05:40:43.674Z,12.10
2023-04-25T05:41:43.686Z,12.13
2023-04-25T05:42:43.662Z,11.99
2023-04-25T05:43:43.631Z,12.04
2023-04-25T05:44:43.650Z,12.17
2023-04-25T05:45:43.663Z,12.17
2023-04-25T05:46:43.610Z,12.15
2023-04-25T05:47:43.630Z,12.07
2023-04-25T05:48:43.611Z,12.11
2023-04-25T05:49:43.613Z,12.15
2023-04-25T05:50:43.562Z,12.13
2023-04-25T05:51:43.571Z,12.11
2023-04-25T05:52:43.544Z,12.14
2023-04-25T05:53:43.529Z,12.18
2023-04-25T05:54:43.524Z,12.18
2023-04-25T05:55:43.498Z,12.14
2023-04-25T05:56:43.519Z,12.18
2023-04-25T05:57:43.489Z,12.14
2023-04-25T05:58:43.477Z,12.23
2023-04-25T05:59:43.481Z,12.13
2023-04-25T06:00:43.459Z,12.23
2023-04-25T06:01:43.445Z,12.11
2023-04-25T06:02:43.559Z,12.13
2023-04-25T06:03:43.714Z,12.10
2023-04-25T06:04:43.589Z,12.17
2023-04-25T06:05:43.522Z,12.18
2023-04-25T06:06:43.393Z,12.18
2023-04-25T06:07:43.373Z,12.25
2023-04-25T06:08:43.372Z,12.11
2023-04-25T06:09:43.350Z,12.13
2023-04-25T06:10:43.361Z,12.15
2023-04-25T06:11:43.329Z,12.25
2023-04-25T06:12:43.329Z,12.13
2023-04-25T06:13:43.311Z,12.14
2023-04-25T06:14:43.304Z,12.18
2023-04-25T06:15:43.335Z,12.26
2023-04-25T06:16:43.284Z,12.26
2023-04-25T06:17:43.307Z,12.18
2023-04-25T06:18:43.255Z,12.18
2023-04-25T06:19:43.262Z,12.14
2023-04-25T06:20:43.261Z,12.26
2023-04-25T06:21:43.260Z,12.15
2023-04-25T06:22:43.235Z,12.18
2023-04-25T06:23:43.213Z,12.21
2023-04-25T06:24:43.210Z,12.26
2023-04-25T06:25:43.177Z,12.18
2023-04-25T06:26:43.174Z,12.18
2023-04-25T06:27:43.159Z,12.25
2023-04-25T06:28:43.152Z,12.22
2023-04-25T06:29:43.154Z,12.14
2023-04-25T06:30:43.168Z,12.22
2023-04-25T06:31:43.315Z,12.25
2023-04-25T06:32:43.163Z,12.22
2023-04-25T06:33:43.099Z,12.25
2023-04-25T06:34:43.104Z,12.15
2023-04-25T06:35:43.082Z,12.26
2023-04-25T06:36:43.100Z,12.26
2023-04-25T06:37:43.076Z,12.22
2023-04-25T06:38:43.040Z,12.26
2023-04-25T06:39:43.046Z,12.25
2023-04-25T06:40:43.025Z,12.28
2023-04-25T06:41:43.034Z,12.26
2023-04-25T06:42:42.998Z,12.22
2023-04-25T06:43:42.983Z,12.26
2023-04-25T06:44:43.000Z,12.26
2023-04-25T06:45:42.964Z,12.25
2023-04-25T06:46:43.014Z,12.36
2023-04-25T06:47:42.987Z,12.36
2023-04-25T06:48:42.934Z,12.36
2023-04-25T06:49:42.938Z,12.23
2023-04-25T06:50:42.917Z,12.28
2023-04-25T06:51:42.905Z,12.33
2023-04-25T06:52:42.902Z,12.30
2023-04-25T06:53:42.898Z,12.30
2023-04-25T06:54:42.894Z,12.36
2023-04-25T06:55:42.854Z,12.30
2023-04-25T06:56:42.850Z,12.29
2023-04-25T06:57:42.829Z,12.29
2023-04-25T06:58:42.843Z,12.36
2023-04-25T06:59:42.834Z,12.32
2023-04-25T07:00:42.836Z,12.28
2023-04-25T07:01:42.780Z,12.30
2023-04-25T07:02:42.893Z,12.40
2023-04-25T07:03:42.887Z,12.30
2023-04-25T07:04:42.965Z,12.30
2023-04-25T07:05:42.738Z,12.33
2023-04-25T07:06:42.737Z,12.35
2023-04-25T07:07:42.721Z,12.32
2023-04-25T07:08:42.738Z,12.40
2023-04-25T07:09:42.729Z,12.30
2023-04-25T07:10:42.721Z,12.35
2023-04-25T07:11:42.680Z,12.33
2023-04-25T07:12:42.672Z,12.30
2023-04-25T07:13:42.657Z,12.36
2023-04-25T07:14:42.653Z,12.35
2023-04-25T07:15:42.681Z,12.35
2023-04-25T07:16:42.683Z,12.36
2023-04-25T07:17:42.634Z,12.35
2023-04-25T07:18:42.603Z,12.43
2023-04-25T07:19:42.596Z,12.32
2023-04-25T07:20:42.614Z,12.33
2023-04-25T07:21:42.576Z,12.33
2023-04-25T07:22:42.572Z,12.33
2023-04-25T07:23:42.589Z,12.35
2023-04-25T07:24:42.692Z,12.32
2023-04-25T07:25:42.573Z,12.30
2023-04-25T07:26:42.521Z,12.44
2023-04-25T07:27:42.504Z,12.44
2023-04-25T07:28:42.506Z,12.36
2023-04-25T07:29:42.486Z,12.44
2023-04-25T07:30:42.495Z,12.33
2023-04-25T07:31:42.488Z,12.33
2023-04-25T07:32:42.550Z,12.35
2023-04-25T07:33:42.488Z,12.44
2023-04-25T07:34:42.446Z,12.33
2023-04-25T07:35:42.442Z,12.33
2023-04-25T07:36:42.408Z,12.40
2023-04-25T07:37:42.401Z,12.35
2023-04-25T07:38:42.418Z,12.35
2023-04-25T07:39:42.376Z,12.35
2023-04-25T07:40:42.390Z,12.38
2023-04-25T07:41:42.387Z,12.38
2023-04-25T07:42:42.352Z,12.35
2023-04-25T07:43:42.331Z,12.33
2023-04-25T07:44:42.345Z,12.46
2023-04-25T07:45:42.348Z,12.40
2023-04-25T07:46:42.304Z,12.38
2023-04-25T07:47:42.318Z,12.38
2023-04-25T07:48:42.286Z,12.38
2023-04-25T07:49:42.290Z,12.47
2023-04-25T07:50:42.256Z,12.40
2023-04-25T07:51:42.244Z,12.40
2023-04-25T07:52:42.236Z,12.44
2023-04-25T07:53:42.244Z,12.41
2023-04-25T07:54:42.236Z,12.44
2023-04-25T07:55:42.203Z,12.44
2023-04-25T07:56:52.128Z,12.43
2023-04-25T07:57:43.216Z,12.46
2023-04-25T07:58:42.227Z,12.43
2023-04-25T07:59:42.152Z,12.46
2023-04-25T08:00:42.152Z,12.47
2023-04-25T08:01:42.145Z,12.47
2023-04-25T08:02:42.182Z,12.43
2023-04-25T08:03:42.411Z,12.54
2023-04-25T08:04:42.276Z,12.51
2023-04-25T08:05:42.280Z,12.50
2023-04-25T08:06:42.290Z,12.54
2023-04-25T08:07:42.062Z,12.59
2023-04-25T08:08:42.075Z,12.54
2023-04-25T08:09:42.085Z,12.55
2023-04-25T08:10:42.051Z,12.61
2023-04-25T08:11:42.027Z,12.66
2023-04-25T08:12:42.021Z,12.66
2023-04-25T08:13:42.032Z,12.61
2023-04-25T08:14:42.030Z,12.58
2023-04-25T08:15:42.007Z,12.59
2023-04-25T08:16:41.993Z,12.62
2023-04-25T08:17:42.003Z,12.66
2023-04-25T08:18:41.949Z,12.63
2023-04-25T08:19:41.943Z,12.68
2023-04-25T08:20:41.954Z,12.80
2023-04-25T08:21:41.949Z,12.72
2023-04-25T08:22:41.903Z,12.73
2023-04-25T08:23:41.912Z,12.79
2023-04-25T08:24:41.889Z,12.80
2023-04-25T08:25:41.874Z,12.71
2023-04-25T08:26:41.887Z,12.76
2023-04-25T08:27:41.893Z,12.88
2023-04-25T08:28:41.845Z,12.88
2023-04-25T08:29:41.867Z,12.86
2023-04-25T08:30:41.819Z,12.93
2023-04-25T08:31:41.942Z,12.87
2023-04-25T08:32:41.848Z,12.93
2023-04-25T08:33:41.793Z,12.88
2023-04-25T08:34:41.782Z,12.80
2023-04-25T08:35:41.768Z,12.99
2023-04-25T08:36:41.782Z,12.93
2023-04-25T08:37:41.748Z,12.96
2023-04-25T08:38:41.742Z,12.99
2023-04-25T08:39:41.735Z,12.93
2023-04-25T08:40:41.734Z,13.05
2023-04-25T08:41:41.709Z,13.02
2023-04-25T08:42:41.712Z,12.99
2023-04-25T08:43:41.701Z,13.02
2023-04-25T08:44:41.675Z,13.09
2023-04-25T08:45:41.735Z,12.99
2023-04-25T08:46:41.696Z,13.09
2023-04-25T08:47:41.704Z,13.11
2023-04-25T08:48:41.630Z,13.13
2023-04-25T08:49:41.639Z,13.09
2023-04-25T08:50:41.603Z,13.20
2023-04-25T08:51:41.600Z,13.26
2023-04-25T08:52:41.618Z,13.23
2023-04-25T08:53:41.566Z,13.35
2023-04-25T08:54:42.042Z,13.35
2023-04-25T08:55:41.551Z,13.39
2023-04-25T08:56:41.535Z,13.47
2023-04-25T08:57:41.555Z,13.45
2023-04-25T08:58:41.516Z,13.47
2023-04-25T08:59:41.522Z,13.53
2023-04-25T09:00:41.534Z,13.61
2023-04-25T09:01:41.729Z,13.57
2023-04-25T09:02:41.686Z,13.65
2023-04-25T09:03:41.544Z,13.73
2023-04-25T09:04:41.442Z,13.68
2023-04-25T09:05:41.442Z,13.71
2023-04-25T09:06:41.456Z,13.65
2023-04-25T09:07:41.442Z,13.73
2023-04-25T09:08:41.406Z,13.80
2023-04-25T09:09:41.399Z,13.85
2023-04-25T09:10:41.409Z,13.88
2023-04-25T09:11:41.398Z,13.88
2023-04-25T09:12:41.409Z,13.90
2023-04-25T09:13:41.357Z,14.00
2023-04-25T09:14:41.378Z,14.03
2023-04-25T09:15:41.334Z,14.05
2023-04-25T09:16:41.757Z,14.08
2023-04-25T09:17:41.591Z,14.13
2023-04-25T09:18:48.610Z,14.16
2023-04-25T09:19:42.681Z,14.22
2023-04-25T09:21:41.262Z,14.33
2023-04-25T09:22:41.290Z,14.23
2023-04-25T09:23:41.250Z,14.34
2023-04-25T09:24:41.253Z,14.37
2023-04-25T09:25:41.218Z,14.45
2023-04-25T09:26:41.213Z,14.45
2023-04-25T09:27:41.219Z,14.52
2023-04-25T09:28:41.183Z,14.53
2023-04-25T09:29:41.199Z,14.59
2023-04-25T09:30:41.161Z,14.64
2023-04-25T09:31:41.181Z,14.61
2023-04-25T09:32:41.179Z,14.69
2023-04-25T09:33:41.189Z,14.79
2023-04-25T09:34:41.148Z,14.78
2023-04-25T09:35:41.113Z,14.77
2023-04-25T09:36:41.102Z,14.74
2023-04-25T09:37:41.112Z,14.78
2023-04-25T09:38:41.085Z,14.96
2023-04-25T09:39:41.068Z,14.92
2023-04-25T09:40:41.059Z,14.96
2023-04-25T09:41:41.044Z,14.99
2023-04-25T09:42:41.053Z,15.05
2023-04-25T09:43:41.044Z,15.04
2023-04-25T09:44:41.016Z,15.15
2023-04-25T09:45:41.075Z,15.20
2023-04-25T09:46:41.064Z,15.20
2023-04-25T09:47:41.012Z,15.14
2023-04-25T09:48:40.999Z,15.12
2023-04-25T09:49:40.991Z,15.23
2023-04-25T09:50:40.948Z,15.30
2023-04-25T09:51:40.968Z,15.40
2023-04-25T09:52:40.926Z,15.35
2023-04-25T09:53:40.946Z,15.44
2023-04-25T09:54:40.913Z,15.47
2023-04-25T09:55:40.946Z,15.51
2023-04-25T09:56:40.908Z,15.50
2023-04-25T09:57:40.892Z,15.60
2023-04-25T09:58:40.888Z,15.60
2023-04-25T09:59:40.853Z,15.59
2023-04-25T10:00:40.848Z,15.70
2023-04-25T10:01:40.921Z,15.80
2023-04-25T10:02:40.914Z,15.78
2023-04-25T10:03:41.068Z,15.83
2023-04-25T10:04:40.877Z,15.85
2023-04-25T10:05:40.829Z,15.93
2023-04-25T10:06:40.801Z,15.95
2023-04-25T10:07:40.763Z,16.03
2023-04-25T10:08:40.753Z,16.26
2023-04-25T10:09:40.765Z,16.34
2023-04-25T10:10:40.743Z,16.40
2023-04-25T10:11:40.752Z,16.72
2023-04-25T10:12:40.729Z,16.74
2023-04-25T10:13:40.703Z,16.79
2023-04-25T10:14:40.690Z,16.95
2023-04-25T10:15:40.729Z,17.10
2023-04-25T10:16:40.721Z,17.07
2023-04-25T10:17:40.747Z,17.19
2023-04-25T10:18:40.686Z,17.31
2023-04-25T10:19:40.722Z,17.43
2023-04-25T10:20:40.622Z,17.46
2023-04-25T10:21:40.725Z,17.46
2023-04-25T10:22:40.642Z,17.45
2023-04-25T10:23:40.595Z,17.46
2023-04-25T10:24:40.605Z,17.45
2023-04-25T10:25:40.571Z,17.46
2023-04-25T10:26:40.569Z,17.45
2023-04-25T10:27:40.602Z,17.39
2023-04-25T10:28:40.539Z,17.38
2023-04-25T10:29:40.566Z,17.41
2023-04-25T10:30:40.545Z,17.43
2023-04-25T10:31:40.566Z,17.41
2023-04-25T10:32:40.536Z,17.39
2023-04-25T10:33:40.486Z,17.38
2023-04-25T10:34:40.468Z,17.45
2023-04-25T10:35:40.501Z,17.43
2023-04-25T10:36:40.448Z,17.39
2023-04-25T10:37:40.827Z,17.47
2023-04-25T10:38:40.429Z,17.38
2023-04-25T10:39:40.428Z,17.45
2023-04-25T10:40:40.433Z,17.46
2023-04-25T10:41:40.403Z,17.41
2023-04-25T10:42:40.379Z,17.35
2023-04-25T10:43:40.435Z,17.38
2023-04-25T10:44:40.365Z,17.35
2023-04-25T10:45:40.389Z,17.37
2023-04-25T10:46:40.381Z,17.32
2023-04-25T10:47:40.384Z,17.41
2023-04-25T10:48:40.318Z,17.37
2023-04-25T10:49:40.316Z,17.37
2023-04-25T10:50:40.322Z,17.38
2023-04-25T10:51:54.906Z,17.32
2023-04-25T10:52:41.275Z,17.34
2023-04-25T10:53:40.331Z,17.43
2023-04-25T10:54:40.259Z,17.41
2023-04-25T10:55:40.272Z,17.39
2023-04-25T10:56:40.238Z,17.32
2023-04-25T10:57:40.222Z,17.37
2023-04-25T10:58:40.215Z,17.32
2023-04-25T10:59:40.202Z,17.41
2023-04-25T11:00:53.109Z,17.45
2023-04-25T11:01:41.239Z,17.47
2023-04-25T11:02:40.375Z,17.49
2023-04-25T11:03:40.283Z,17.47
2023-04-25T11:04:40.510Z,17.49
2023-04-25T11:05:51.095Z,17.47
2023-04-25T11:06:41.149Z,17.47
2023-04-25T11:07:40.116Z,17.49
2023-04-25T11:08:40.112Z,17.49
2023-04-25T11:09:40.115Z,17.54
2023-04-25T11:10:40.082Z,17.47
2023-04-25T11:11:40.106Z,17.52
2023-04-25T11:12:40.055Z,17.53
2023-04-25T11:13:40.050Z,17.47
2023-04-25T11:15:40.066Z,17.50
2023-04-25T11:16:40.062Z,17.50
2023-04-25T11:17:40.182Z,17.46
2023-04-25T11:18:40.003Z,17.49
2023-04-25T11:19:40.016Z,17.49
2023-04-25T11:20:39.972Z,17.49
2023-04-25T11:21:39.992Z,17.52
2023-04-25T11:22:39.961Z,17.43
2023-04-25T11:23:39.955Z,17.41
2023-04-25T11:24:39.951Z,17.43
2023-04-25T11:25:39.999Z,17.41
2023-04-25T11:26:39.941Z,17.35
2023-04-25T11:27:39.920Z,17.45
2023-04-25T11:28:39.901Z,17.45
2023-04-25T11:29:39.880Z,17.41
2023-04-25T11:30:39.868Z,17.38
2023-04-25T11:31:39.942Z,17.38
2023-04-25T11:32:39.932Z,17.46
2023-04-25T11:33:39.838Z,17.38
2023-04-25T11:34:39.826Z,17.38
2023-04-25T11:35:39.827Z,17.37
2023-04-25T11:36:39.832Z,17.39
2023-04-25T11:37:39.800Z,17.37
2023-04-25T11:38:39.796Z,17.35
2023-04-25T11:39:39.784Z,17.38
2023-04-25T11:40:39.758Z,17.37
2023-04-25T11:41:39.838Z,17.41
2023-04-25T11:42:39.786Z,17.34
2023-04-25T11:43:40.857Z,17.28
2023-04-25T11:44:39.744Z,17.28
2023-04-25T11:45:39.735Z,17.32
2023-04-25T11:46:39.716Z,17.27
2023-04-25T11:47:39.804Z,17.31
2023-04-25T11:48:39.677Z,17.34
2023-04-25T11:49:39.685Z,17.35
2023-04-25T11:50:39.657Z,17.28
2023-04-25T11:51:39.652Z,17.28
2023-04-25T11:52:39.647Z,17.31
2023-04-25T11:53:39.621Z,17.31
2023-04-25T11:54:39.610Z,17.25
2023-04-25T11:55:39.628Z,17.28
2023-04-25T11:56:39.591Z,17.25
2023-04-25T11:57:39.618Z,17.32
2023-04-25T11:58:39.561Z,17.30
2023-04-25T11:59:39.556Z,17.31
2023-04-25T12:00:39.596Z,17.28
2023-04-25T12:01:40.537Z,17.24
2023-04-25T12:02:39.693Z,17.25
2023-04-25T12:03:39.755Z,17.31
2023-04-25T12:04:39.692Z,17.28
2023-04-25T12:05:39.680Z,17.28
2023-04-25T12:06:39.567Z,17.32
2023-04-25T12:07:39.470Z,17.31
2023-04-25T12:08:39.482Z,17.32
2023-04-25T12:09:39.462Z,17.31
2023-04-25T12:10:39.469Z,17.35
2023-04-25T12:11:40.897Z,17.37
2023-04-25T12:12:39.415Z,17.35
2023-04-25T12:13:39.445Z,17.37
2023-04-25T12:14:39.424Z,17.38
2023-04-25T12:15:39.395Z,17.34
2023-04-25T12:16:39.423Z,17.37
2023-04-25T12:17:39.390Z,17.38
2023-04-25T12:18:40.946Z,17.41
2023-04-25T12:19:39.377Z,17.37
2023-04-25T12:20:39.325Z,17.45
2023-04-25T12:21:50.515Z,17.43
2023-04-25T12:22:40.306Z,17.43
2023-04-25T12:23:39.320Z,17.46
2023-04-25T12:24:39.697Z,17.39
2023-04-25T12:25:39.358Z,17.46
2023-04-25T12:26:39.288Z,17.45
2023-04-25T12:27:39.260Z,17.38
2023-04-25T12:28:39.247Z,17.45
2023-04-25T12:29:49.329Z,17.45
2023-04-25T12:30:42.253Z,17.47
2023-04-25T12:31:39.280Z,17.46
2023-04-25T12:32:39.282Z,17.43
2023-04-25T12:33:39.202Z,17.47
2023-04-25T12:34:39.202Z,17.46
2023-04-25T12:35:39.167Z,17.46
2023-04-25T12:36:39.158Z,17.56
2023-04-25T12:37:39.146Z,17.63
2023-04-25T12:38:39.141Z,17.62
2023-04-25T12:39:39.156Z,17.62
2023-04-25T12:40:39.128Z,17.62
2023-04-25T12:41:39.136Z,17.65
2023-04-25T12:42:39.096Z,17.59
2023-04-25T12:43:39.080Z,17.56
2023-04-25T12:44:39.097Z,17.68
2023-04-25T12:45:39.148Z,17.65
2023-04-25T12:46:39.105Z,17.63
2023-04-25T12:47:39.118Z,17.66
2023-04-25T12:48:39.037Z,17.57
2023-04-25T12:49:39.020Z,17.73
2023-04-25T12:50:39.016Z,17.68
2023-04-25T12:51:39.010Z,17.72
2023-04-25T12:52:39.023Z,17.72
2023-04-25T12:53:38.970Z,17.71
2023-04-25T12:54:38.965Z,17.79